createdAt,value
2017-02-23T00:00:23.452Z,34.94
2017-02-23T00:01:23.868Z,34.94
2017-02-23T00:02:23.419Z,35.03
2017-02-23T00:03:24.119Z,34.84
2017-02-23T00:04:23.876Z,34.74
2017-02-23T00:05:23.842Z,34.74
2017-02-23T00:06:23.939Z,34.45
2017-02-23T00:07:23.445Z,34.84
2017-02-23T00:08:23.849Z,34.94
2017-02-23T00:09:23.857Z,34.55
2017-02-23T00:10:23.470Z,34.55
2017-02-23T00:11:23.920Z,34.64
2017-02-23T00:12:23.877Z,34.64
2017-02-23T00:13:23.934Z,34.64
2017-02-23T00:14:23.938Z,34.74
2017-02-23T00:15:23.551Z,34.84
2017-02-23T00:16:24.001Z,34.94
2017-02-23T00:17:23.908Z,34.72
2017-02-23T00:18:23.912Z,34.82
2017-02-23T00:19:23.923Z,34.92
2017-02-23T00:20:23.977Z,35.03
2017-02-23T00:21:23.989Z,34.64
2017-02-23T00:22:23.595Z,34.74
2017-02-23T00:23:23.944Z,34.82
2017-02-23T00:24:23.956Z,35.03
2017-02-23T00:25:23.956Z,34.64
2017-02-23T00:26:23.964Z,34.64
2017-02-23T00:27:24.038Z,34.55
2017-02-23T00:28:24.024Z,34.45
2017-02-23T00:29:24.081Z,34.64
2017-02-23T00:30:24.002Z,34.55
2017-02-23T00:31:23.995Z,34.36
2017-02-23T00:32:24.049Z,34.44
2017-02-23T00:33:24.057Z,34.16
2017-02-23T00:34:24.078Z,34.45
2017-02-23T00:35:24.032Z,34.44
2017-02-23T00:36:24.083Z,34.36
2017-02-23T00:37:23.946Z,34.16
2017-02-23T00:38:24.088Z,34.26
2017-02-23T00:39:24.103Z,34.64
2017-02-23T00:40:24.052Z,34.53
2017-02-23T00:41:24.057Z,34.44
2017-02-23T00:42:24.078Z,34.44
2017-02-23T00:43:23.682Z,34.64
2017-02-23T00:44:24.175Z,34.55
2017-02-23T00:45:24.834Z,34.72
2017-02-23T00:46:24.147Z,34.64
2017-02-23T00:47:24.107Z,34.64
2017-02-23T00:48:24.113Z,34.44
2017-02-23T00:49:23.763Z,34.92
2017-02-23T00:50:24.164Z,34.82
2017-02-23T00:51:24.171Z,34.63
2017-02-23T00:52:24.142Z,34.72
2017-02-23T00:53:24.231Z,34.92
2017-02-23T00:54:23.749Z,34.92
2017-02-23T00:55:24.159Z,34.82
2017-02-23T00:56:24.166Z,34.72
2017-02-23T00:57:24.207Z,34.92
2017-02-23T00:58:24.215Z,34.72
2017-02-23T00:59:24.231Z,34.92
2017-02-23T01:00:24.178Z,35.02
2017-02-23T01:01:23.785Z,34.92
2017-02-23T01:02:24.197Z,34.82
2017-02-23T01:03:24.200Z,34.82
2017-02-23T01:04:24.301Z,34.92
2017-02-23T01:05:24.310Z,34.82
2017-02-23T01:06:24.213Z,34.82
2017-02-23T01:07:24.224Z,34.82
2017-02-23T01:08:24.277Z,34.82
2017-02-23T01:09:24.287Z,34.82
2017-02-23T01:10:24.244Z,34.82
2017-02-23T01:11:24.247Z,34.92
2017-02-23T01:12:24.303Z,34.92
2017-02-23T01:13:24.263Z,34.92
2017-02-23T01:14:24.321Z,34.92
2017-02-23T01:15:24.272Z,34.92
2017-02-23T01:16:24.326Z,34.82
2017-02-23T01:17:24.282Z,35.02
2017-02-23T01:18:24.292Z,34.92
2017-02-23T01:19:24.294Z,34.82
2017-02-23T01:20:24.301Z,34.92
2017-02-23T01:21:24.415Z,34.92
2017-02-23T01:22:23.968Z,34.72
2017-02-23T01:23:24.371Z,34.82
2017-02-23T01:24:24.327Z,34.92
2017-02-23T01:25:24.385Z,34.82
2017-02-23T01:26:24.340Z,34.92
2017-02-23T01:27:24.351Z,34.92
2017-02-23T01:28:24.403Z,34.82
2017-02-23T01:29:23.966Z,34.82
2017-02-23T01:30:24.428Z,34.82
2017-02-23T01:31:24.418Z,34.82
2017-02-23T01:32:24.429Z,34.72
2017-02-23T01:33:24.383Z,34.82
2017-02-23T01:34:24.388Z,34.72
2017-02-23T01:35:24.410Z,34.63
2017-02-23T01:36:24.453Z,34.72
2017-02-23T01:37:24.457Z,34.63
2017-02-23T01:38:24.414Z,34.82
2017-02-23T01:39:24.422Z,34.72
2017-02-23T01:40:24.425Z,34.82
2017-02-23T01:41:24.482Z,34.82
2017-02-23T01:42:24.439Z,34.92
2017-02-23T01:43:24.445Z,34.92
2017-02-23T01:44:24.507Z,34.92
2017-02-23T01:45:24.519Z,34.92
2017-02-23T01:46:24.842Z,34.92
2017-02-23T01:47:24.520Z,34.72
2017-02-23T01:48:24.526Z,34.92
2017-02-23T01:49:24.480Z,34.92
2017-02-23T01:50:24.492Z,34.92
2017-02-23T01:51:24.563Z,34.82
2017-02-23T01:52:24.500Z,34.92
2017-02-23T01:53:24.413Z,34.92
2017-02-23T01:54:24.564Z,34.82
2017-02-23T01:55:24.518Z,34.63
2017-02-23T01:56:24.627Z,34.82
2017-02-23T01:57:24.581Z,34.92
2017-02-23T01:58:24.537Z,34.92
2017-02-23T01:59:24.197Z,34.82
2017-02-23T02:00:24.551Z,34.82
2017-02-23T02:01:24.566Z,34.82
2017-02-23T02:02:24.635Z,34.82
2017-02-23T02:03:24.619Z,34.82
2017-02-23T02:04:24.183Z,34.82
2017-02-23T02:05:24.633Z,34.72
2017-02-23T02:06:24.594Z,34.92
2017-02-23T02:07:24.197Z,34.82
2017-02-23T02:08:24.601Z,34.82
2017-02-23T02:09:24.621Z,34.82
2017-02-23T02:10:24.240Z,34.82
2017-02-23T02:11:24.920Z,34.82
2017-02-23T02:12:24.626Z,34.72
2017-02-23T02:13:24.645Z,34.92
2017-02-23T02:14:24.700Z,34.72
2017-02-23T02:15:24.644Z,34.82
2017-02-23T02:16:24.652Z,34.82
2017-02-23T02:17:24.709Z,34.82
2017-02-23T02:18:24.667Z,34.82
2017-02-23T02:19:24.276Z,34.82
2017-02-23T02:20:25.024Z,34.82
2017-02-23T02:21:24.739Z,34.72
2017-02-23T02:22:24.688Z,34.72
2017-02-23T02:23:24.745Z,34.82
2017-02-23T02:24:24.764Z,34.72
2017-02-23T02:25:24.721Z,34.82
2017-02-23T02:26:24.319Z,34.92
2017-02-23T02:27:24.771Z,34.82
2017-02-23T02:28:24.734Z,34.72
2017-02-23T02:29:24.731Z,34.82
2017-02-23T02:30:24.797Z,34.72
2017-02-23T02:31:24.749Z,34.92
2017-02-23T02:32:24.757Z,34.92
2017-02-23T02:33:24.808Z,34.82
2017-02-23T02:34:24.964Z,34.72
2017-02-23T02:35:24.782Z,34.53
2017-02-23T02:36:24.383Z,34.82
2017-02-23T02:37:24.385Z,34.72
2017-02-23T02:38:24.844Z,34.82
2017-02-23T02:39:24.847Z,34.72
2017-02-23T02:40:24.850Z,34.72
2017-02-23T02:41:24.868Z,34.72
2017-02-23T02:42:24.812Z,34.82
2017-02-23T02:43:24.829Z,34.82
2017-02-23T02:44:24.429Z,34.82
2017-02-23T02:45:24.437Z,34.82
2017-02-23T02:46:24.838Z,34.82
2017-02-23T02:47:24.842Z,34.72
2017-02-23T02:48:24.460Z,34.82
2017-02-23T02:49:24.855Z,34.63
2017-02-23T02:50:24.876Z,34.63
2017-02-23T02:51:24.521Z,34.92
2017-02-23T02:52:24.923Z,34.82
2017-02-23T02:53:24.932Z,34.82
2017-02-23T02:54:24.886Z,34.92
2017-02-23T02:55:24.893Z,34.72
2017-02-23T02:56:24.900Z,34.72
2017-02-23T02:57:24.957Z,34.72
2017-02-23T02:58:24.927Z,34.82
2017-02-23T02:59:24.923Z,34.72
2017-02-23T03:00:24.929Z,34.63
2017-02-23T03:01:24.929Z,34.82
2017-02-23T03:02:24.546Z,34.92
2017-02-23T03:03:24.995Z,34.82
2017-02-23T03:04:24.950Z,34.72
2017-02-23T03:05:25.016Z,34.72
2017-02-23T03:06:24.960Z,34.72
2017-02-23T03:07:24.969Z,34.8
2017-02-23T03:08:24.972Z,34.92
2017-02-23T03:09:25.030Z,34.92
2017-02-23T03:10:24.993Z,34.92
2017-02-23T03:11:24.993Z,34.82
2017-02-23T03:12:25.046Z,34.92
2017-02-23T03:13:25.003Z,34.82
2017-02-23T03:14:25.070Z,35.02
2017-02-23T03:15:25.065Z,34.92
2017-02-23T03:16:25.079Z,34.82
2017-02-23T03:17:25.030Z,34.82
2017-02-23T03:18:25.033Z,35.02
2017-02-23T03:19:25.041Z,35.02
2017-02-23T03:20:25.147Z,34.82
2017-02-23T03:21:24.706Z,34.92
2017-02-23T03:22:25.111Z,34.92
2017-02-23T03:23:24.669Z,34.92
2017-02-23T03:24:24.727Z,34.82
2017-02-23T03:25:25.528Z,34.92
2017-02-23T03:26:25.085Z,34.82
2017-02-23T03:27:25.090Z,34.92
2017-02-23T03:28:25.111Z,34.92
2017-02-23T03:29:25.105Z,34.92
2017-02-23T03:30:25.169Z,35.02
2017-02-23T03:31:25.169Z,34.82
2017-02-23T03:32:25.225Z,34.92
2017-02-23T03:33:24.782Z,34.82
2017-02-23T03:34:24.734Z,34.92
2017-02-23T03:35:25.139Z,34.92
2017-02-23T03:36:25.145Z,34.92
2017-02-23T03:37:25.216Z,34.82
2017-02-23T03:38:25.208Z,34.82
2017-02-23T03:39:24.773Z,34.82
2017-02-23T03:40:24.775Z,34.8
2017-02-23T03:41:25.177Z,34.92
2017-02-23T03:42:25.282Z,34.72
2017-02-23T03:43:25.251Z,34.82
2017-02-23T03:44:25.246Z,34.72
2017-02-23T03:45:25.209Z,34.82
2017-02-23T03:46:25.255Z,34.9
2017-02-23T03:47:25.214Z,34.82
2017-02-23T03:48:25.221Z,34.82
2017-02-23T03:49:25.574Z,34.82
2017-02-23T03:50:25.243Z,34.92
2017-02-23T03:51:25.234Z,34.82
2017-02-23T03:52:25.306Z,34.92
2017-02-23T03:53:25.302Z,34.92
2017-02-23T03:54:25.270Z,34.92
2017-02-23T03:55:25.328Z,34.92
2017-02-23T03:56:24.872Z,34.82
2017-02-23T03:57:25.277Z,34.92
2017-02-23T03:58:25.281Z,34.8
2017-02-23T03:59:25.313Z,34.82
2017-02-23T04:00:25.295Z,34.9
2017-02-23T04:01:25.356Z,34.82
2017-02-23T04:02:24.913Z,34.82
2017-02-23T04:03:25.363Z,34.82
2017-02-23T04:04:25.419Z,34.92
2017-02-23T04:05:25.384Z,34.92
2017-02-23T04:06:25.395Z,34.92
2017-02-23T04:07:25.406Z,34.92
2017-02-23T04:08:24.999Z,34.7
2017-02-23T04:09:25.349Z,34.82
2017-02-23T04:10:25.407Z,34.7
2017-02-23T04:11:25.649Z,34.8
2017-02-23T04:12:25.421Z,34.92
2017-02-23T04:13:25.374Z,34.7
2017-02-23T04:14:25.381Z,34.9
2017-02-23T04:15:25.495Z,34.82
2017-02-23T04:16:25.446Z,34.92
2017-02-23T04:17:25.007Z,34.8
2017-02-23T04:18:25.513Z,34.92
2017-02-23T04:19:25.416Z,34.8
2017-02-23T04:20:25.426Z,34.82
2017-02-23T04:21:25.475Z,34.9
2017-02-23T04:22:25.479Z,34.8
2017-02-23T04:23:25.436Z,34.8
2017-02-23T04:24:25.490Z,34.8
2017-02-23T04:25:25.115Z,34.9
2017-02-23T04:26:25.509Z,34.82
2017-02-23T04:27:25.161Z,34.8
2017-02-23T04:28:25.519Z,34.92
2017-02-23T04:29:25.519Z,34.9
2017-02-23T04:30:25.479Z,34.82
2017-02-23T04:31:25.586Z,34.82
2017-02-23T04:32:25.541Z,34.92
2017-02-23T04:33:25.559Z,34.72
2017-02-23T04:34:25.553Z,34.82
2017-02-23T04:35:25.166Z,34.82
2017-02-23T04:36:25.515Z,35.02
2017-02-23T04:37:25.570Z,34.82
2017-02-23T04:38:25.675Z,34.82
2017-02-23T04:39:25.538Z,34.8
2017-02-23T04:40:25.587Z,34.92
2017-02-23T04:41:25.547Z,34.82
2017-02-23T04:42:25.607Z,34.7
2017-02-23T04:43:25.609Z,34.9
2017-02-23T04:44:25.571Z,34.8
2017-02-23T04:45:25.582Z,34.9
2017-02-23T04:46:25.579Z,34.8
2017-02-23T04:47:25.239Z,34.82
2017-02-23T04:48:25.188Z,34.7
2017-02-23T04:49:25.198Z,34.8
2017-02-23T04:50:25.611Z,34.82
2017-02-23T04:51:25.603Z,34.7
2017-02-23T04:52:25.614Z,34.9
2017-02-23T04:53:25.616Z,35.02
2017-02-23T04:54:25.621Z,34.92
2017-02-23T04:55:25.643Z,34.8
2017-02-23T04:56:25.748Z,34.63
2017-02-23T04:57:25.644Z,34.92
2017-02-23T04:58:25.648Z,34.92
2017-02-23T04:59:25.703Z,35.02
2017-02-23T05:00:25.659Z,34.92
2017-02-23T05:01:25.676Z,35.02
2017-02-23T05:02:25.682Z,34.82
2017-02-23T05:03:26.481Z,34.82
2017-02-23T05:04:25.683Z,34.82
2017-02-23T05:05:25.751Z,34.82
2017-02-23T05:06:25.697Z,34.9
2017-02-23T05:07:25.715Z,35.02
2017-02-23T05:08:25.360Z,34.92
2017-02-23T05:09:25.716Z,34.92
2017-02-23T05:10:25.718Z,34.92
2017-02-23T05:11:25.734Z,34.9
2017-02-23T05:12:25.734Z,34.82
2017-02-23T05:13:25.739Z,34.92
2017-02-23T05:14:25.743Z,34.82
2017-02-23T05:15:25.821Z,35.02
2017-02-23T05:16:25.757Z,35
2017-02-23T05:17:25.809Z,34.82
2017-02-23T05:18:25.765Z,34.72
2017-02-23T05:19:25.775Z,34.8
2017-02-23T05:20:25.390Z,34.8
2017-02-23T05:21:25.788Z,34.72
2017-02-23T05:22:25.791Z,34.9
2017-02-23T05:23:25.799Z,34.92
2017-02-23T05:24:25.409Z,34.82
2017-02-23T05:25:25.808Z,34.92
2017-02-23T05:26:25.483Z,34.92
2017-02-23T05:27:25.824Z,34.92
2017-02-23T05:28:25.887Z,34.92
2017-02-23T05:29:25.834Z,34.82
2017-02-23T05:30:25.843Z,34.92
2017-02-23T05:31:25.893Z,34.82
2017-02-23T05:32:25.909Z,34.82
2017-02-23T05:33:25.860Z,34.82
2017-02-23T05:34:25.864Z,34.92
2017-02-23T05:35:25.937Z,34.82
2017-02-23T05:36:25.925Z,34.92
2017-02-23T05:37:25.888Z,34.72
2017-02-23T05:38:25.893Z,34.92
2017-02-23T05:39:25.548Z,34.82
2017-02-23T05:40:25.957Z,34.92
2017-02-23T05:41:25.953Z,34.82
2017-02-23T05:42:25.910Z,34.92
2017-02-23T05:43:25.971Z,34.92
2017-02-23T05:44:25.575Z,34.82
2017-02-23T05:45:26.231Z,34.92
2017-02-23T05:46:25.947Z,34.72
2017-02-23T05:47:26.002Z,34.72
2017-02-23T05:48:25.556Z,34.72
2017-02-23T05:49:26.255Z,34.72
2017-02-23T05:50:26.011Z,34.72
2017-02-23T05:51:26.017Z,34.7
2017-02-23T05:52:26.075Z,34.61
2017-02-23T05:53:26.030Z,34.61
2017-02-23T05:54:26.301Z,34.72
2017-02-23T05:55:25.991Z,34.82
2017-02-23T05:56:25.608Z,34.92
2017-02-23T05:57:26.009Z,34.82
2017-02-23T05:58:26.017Z,34.92
2017-02-23T05:59:26.065Z,34.92
2017-02-23T06:00:26.019Z,35.02
2017-02-23T06:01:26.078Z,34.82
2017-02-23T06:02:26.092Z,34.92
2017-02-23T06:03:26.037Z,34.92
2017-02-23T06:04:26.095Z,35.02
2017-02-23T06:05:26.064Z,34.82
2017-02-23T06:06:26.056Z,34.72
2017-02-23T06:07:26.115Z,34.82
2017-02-23T06:08:26.081Z,34.82
2017-02-23T06:09:26.075Z,34.82
2017-02-23T06:10:26.143Z,34.82
2017-02-23T06:11:26.191Z,34.92
2017-02-23T06:12:26.094Z,34.82
2017-02-23T06:13:26.395Z,34.82
2017-02-23T06:14:26.107Z,34.82
2017-02-23T06:15:26.173Z,34.92
2017-02-23T06:16:26.216Z,34.82
2017-02-23T06:17:26.136Z,34.92
2017-02-23T06:18:26.180Z,34.82
2017-02-23T06:19:26.189Z,35.02
2017-02-23T06:20:26.140Z,34.82
2017-02-23T06:21:26.228Z,34.92
2017-02-23T06:22:26.154Z,34.92
2017-02-23T06:23:26.170Z,34.92
2017-02-23T06:24:26.236Z,34.92
2017-02-23T06:25:26.221Z,34.92
2017-02-23T06:26:26.227Z,34.92
2017-02-23T06:27:26.184Z,34.92
2017-02-23T06:28:25.849Z,34.92
2017-02-23T06:29:26.195Z,34.92
2017-02-23T06:30:26.203Z,34.82
2017-02-23T06:31:26.258Z,34.92
2017-02-23T06:32:26.214Z,34.82
2017-02-23T06:33:26.270Z,34.92
2017-02-23T06:34:25.884Z,34.92
2017-02-23T06:35:26.289Z,34.63
2017-02-23T06:36:25.843Z,35.02
2017-02-23T06:37:26.244Z,34.92
2017-02-23T06:38:26.303Z,34.24
2017-02-23T06:39:26.256Z,34.63
2017-02-23T06:40:26.261Z,34.53
2017-02-23T06:41:26.375Z,34.92
2017-02-23T06:42:26.322Z,34.92
2017-02-23T06:43:26.283Z,34.92
2017-02-23T06:44:26.332Z,35.11
2017-02-23T06:45:25.958Z,35.02
2017-02-23T06:46:26.309Z,34.92
2017-02-23T06:47:26.360Z,34.82
2017-02-23T06:48:26.313Z,34.82
2017-02-23T06:49:26.318Z,34.92
2017-02-23T06:50:26.403Z,34.92
2017-02-23T06:51:26.329Z,34.92
2017-02-23T06:52:26.334Z,34.82
2017-02-23T06:53:26.396Z,34.72
2017-02-23T06:54:25.952Z,34.92
2017-02-23T06:55:26.353Z,34.82
2017-02-23T06:56:26.014Z,34.92
2017-02-23T06:57:26.067Z,34.82
2017-02-23T06:58:26.419Z,34.92
2017-02-23T06:59:26.376Z,34.92
2017-02-23T07:00:26.387Z,34.92
2017-02-23T07:01:25.994Z,34.92
2017-02-23T07:02:26.408Z,34.82
2017-02-23T07:03:26.013Z,34.82
2017-02-23T07:04:26.758Z,34.82
2017-02-23T07:05:26.414Z,34.82
2017-02-23T07:06:26.418Z,34.92
2017-02-23T07:07:26.086Z,34.82
2017-02-23T07:08:26.433Z,34.72
2017-02-23T07:09:26.437Z,34.72
2017-02-23T07:10:26.442Z,34.72
2017-02-23T07:11:26.498Z,34.92
2017-02-23T07:12:26.110Z,34.92
2017-02-23T07:13:26.066Z,35.02
2017-02-23T07:14:26.120Z,34.72
2017-02-23T07:15:26.473Z,34.82
2017-02-23T07:16:26.531Z,34.92
2017-02-23T07:17:26.483Z,34.92
2017-02-23T07:18:26.538Z,34.92
2017-02-23T07:19:26.559Z,34.82
2017-02-23T07:20:26.553Z,34.82
2017-02-23T07:21:26.511Z,34.92
2017-02-23T07:22:26.516Z,34.92
2017-02-23T07:23:26.570Z,34.82
2017-02-23T07:24:26.183Z,34.82
2017-02-23T07:25:26.540Z,34.92
2017-02-23T07:26:26.537Z,34.82
2017-02-23T07:27:26.594Z,34.72
2017-02-23T07:28:26.550Z,34.82
2017-02-23T07:29:26.555Z,34.92
2017-02-23T07:30:26.563Z,34.72
2017-02-23T07:31:26.628Z,34.82
2017-02-23T07:32:26.604Z,34.92
2017-02-23T07:33:26.683Z,34.72
2017-02-23T07:34:26.594Z,34.53
2017-02-23T07:35:26.589Z,34.44
2017-02-23T07:36:26.603Z,33.95
2017-02-23T07:37:26.606Z,33.78
2017-02-23T07:38:26.620Z,33.58
2017-02-23T07:39:26.670Z,33.2
2017-02-23T07:40:26.673Z,33.12
2017-02-23T07:41:26.628Z,32.73
2017-02-23T07:42:26.639Z,32.54
2017-02-23T07:43:26.704Z,32.24
2017-02-23T07:44:26.697Z,32.07
2017-02-23T07:45:26.654Z,31.68
2017-02-23T07:46:26.660Z,31.68
2017-02-23T07:47:26.715Z,31.4
2017-02-23T07:48:26.675Z,31.02
2017-02-23T07:49:26.677Z,31.02
2017-02-23T07:50:26.734Z,30.83
2017-02-23T07:51:26.692Z,30.35
2017-02-23T07:52:26.748Z,30.36
2017-02-23T07:53:26.702Z,30.36
2017-02-23T07:54:26.414Z,30.17
2017-02-23T07:55:26.769Z,30.17
2017-02-23T07:56:26.776Z,30.07
2017-02-23T07:57:26.729Z,29.78
2017-02-23T07:58:26.734Z,29.97
2017-02-23T07:59:26.740Z,29.88
2017-02-23T08:00:26.798Z,30.08
2017-02-23T08:01:26.752Z,30.08
2017-02-23T08:02:26.859Z,30.28
2017-02-23T08:03:26.766Z,29.41
2017-02-23T08:04:26.772Z,29.8
2017-02-23T08:05:26.827Z,29.6
2017-02-23T08:06:26.892Z,29.41
2017-02-23T08:07:26.803Z,29.6
2017-02-23T08:08:26.854Z,29.22
2017-02-23T08:09:26.855Z,29.32
2017-02-23T08:10:26.820Z,29.41
2017-02-23T08:11:26.483Z,29.6
2017-02-23T08:12:26.826Z,29.22
2017-02-23T08:13:26.833Z,29.6
2017-02-23T08:14:26.899Z,29.12
2017-02-23T08:15:26.902Z,29.5
2017-02-23T08:16:26.854Z,29.5
2017-02-23T08:17:26.914Z,29.41
2017-02-23T08:18:26.536Z,29.43
2017-02-23T08:19:26.882Z,29.41
2017-02-23T08:20:26.932Z,29.5
2017-02-23T08:21:26.887Z,29.41
2017-02-23T08:22:26.896Z,29.43
2017-02-23T08:23:26.955Z,29.5
2017-02-23T08:24:26.912Z,29.52
2017-02-23T08:25:26.912Z,29.6
2017-02-23T08:26:27.025Z,29.5
2017-02-23T08:27:26.978Z,29.02
2017-02-23T08:28:26.942Z,29.03
2017-02-23T08:29:26.944Z,29.13
2017-02-23T08:30:27.003Z,29.03
2017-02-23T08:31:27.304Z,28.94
2017-02-23T08:32:26.964Z,29.02
2017-02-23T08:33:27.027Z,29.13
2017-02-23T08:34:27.042Z,29.03
2017-02-23T08:35:26.985Z,29.03
2017-02-23T08:36:27.042Z,29.03
2017-02-23T08:37:26.660Z,29.23
2017-02-23T08:38:27.014Z,29.13
2017-02-23T08:39:26.672Z,29.33
2017-02-23T08:40:26.626Z,29.23
2017-02-23T08:41:27.088Z,29.33
2017-02-23T08:42:27.140Z,29.13
2017-02-23T08:43:27.045Z,28.85
2017-02-23T08:44:26.709Z,29.23
2017-02-23T08:45:27.057Z,29.23
2017-02-23T08:46:27.076Z,29.23
2017-02-23T08:47:27.075Z,29.23
2017-02-23T08:48:26.684Z,29.33
2017-02-23T08:49:27.087Z,29.33
2017-02-23T08:50:27.114Z,29.33
2017-02-23T08:51:27.106Z,29.33
2017-02-23T08:52:27.157Z,29.23
2017-02-23T08:53:26.769Z,29.23
2017-02-23T08:54:27.168Z,29.33
2017-02-23T08:55:27.129Z,29.33
2017-02-23T08:56:27.145Z,29.33
2017-02-23T08:57:27.242Z,29.13
2017-02-23T08:58:26.766Z,29.13
2017-02-23T08:59:27.208Z,29.13
2017-02-23T09:00:27.162Z,29.43
2017-02-23T09:01:27.172Z,29.43
2017-02-23T09:02:26.788Z,29.33
2017-02-23T09:03:26.841Z,29.61
2017-02-23T09:04:26.847Z,29.33
2017-02-23T09:05:26.803Z,29.61
2017-02-23T09:06:28.511Z,30.2
2017-02-23T09:07:27.268Z,29.81
2017-02-23T09:08:27.220Z,30.29
2017-02-23T09:09:27.225Z,30.2
2017-02-23T09:10:27.340Z,30
2017-02-23T09:11:27.251Z,30.2
2017-02-23T09:12:26.851Z,30.29
2017-02-23T09:13:27.313Z,30.1
2017-02-23T09:14:27.262Z,30.2
2017-02-23T09:15:27.330Z,29.71
2017-02-23T09:16:27.282Z,30
2017-02-23T09:17:27.335Z,30.29
2017-02-23T09:18:27.289Z,30
2017-02-23T09:19:27.345Z,30.2
2017-02-23T09:20:27.515Z,29.91
2017-02-23T09:21:27.310Z,30.2
2017-02-23T09:22:27.368Z,29.91
2017-02-23T09:23:27.326Z,30.02
2017-02-23T09:24:27.383Z,30.1
2017-02-23T09:25:27.446Z,30.1
2017-02-23T09:26:27.347Z,30.39
2017-02-23T09:27:27.359Z,30.1
2017-02-23T09:28:27.015Z,30.1
2017-02-23T09:29:27.416Z,30.1
2017-02-23T09:30:27.373Z,30.29
2017-02-23T09:31:27.396Z,30.31
2017-02-23T09:32:27.390Z,30.02
2017-02-23T09:33:27.494Z,30.2
2017-02-23T09:34:27.008Z,30
2017-02-23T09:35:27.421Z,29.81
2017-02-23T09:36:27.469Z,30
2017-02-23T09:37:27.030Z,29.73
2017-02-23T09:38:27.481Z,30.21
2017-02-23T09:39:27.156Z,30.21
2017-02-23T09:40:27.445Z,30.41
2017-02-23T09:41:27.454Z,30.11
2017-02-23T09:42:27.066Z,30.2
2017-02-23T09:43:27.469Z,30.2
2017-02-23T09:44:27.528Z,30.2
2017-02-23T09:45:27.534Z,30.21
2017-02-23T09:46:27.489Z,30
2017-02-23T09:47:27.508Z,30.41
2017-02-23T09:48:27.502Z,30.31
2017-02-23T09:49:27.519Z,29.81
2017-02-23T09:50:27.518Z,30.11
2017-02-23T09:51:27.524Z,29.83
2017-02-23T09:52:27.584Z,30.11
2017-02-23T09:53:27.543Z,30.31
2017-02-23T09:54:27.553Z,30.21
2017-02-23T09:55:27.552Z,29.83
2017-02-23T09:56:27.671Z,30.11
2017-02-23T09:57:27.568Z,30.02
2017-02-23T09:58:27.672Z,30.11
2017-02-23T09:59:27.582Z,30.11
2017-02-23T10:00:27.592Z,30.02
2017-02-23T10:01:27.600Z,30.31
2017-02-23T10:02:27.658Z,29.73
2017-02-23T10:03:27.620Z,29.92
2017-02-23T10:04:27.626Z,29.53
2017-02-23T10:05:27.674Z,29.63
2017-02-23T10:06:27.693Z,29.53
2017-02-23T10:07:27.306Z,29.83
2017-02-23T10:08:27.699Z,29.34
2017-02-23T10:09:27.308Z,29.34
2017-02-23T10:10:27.659Z,29.44
2017-02-23T10:11:27.274Z,29.34
2017-02-23T10:12:27.778Z,29.34
2017-02-23T10:13:27.782Z,29.53
2017-02-23T10:14:27.645Z,29.53
2017-02-23T10:15:27.790Z,30.11
2017-02-23T10:16:27.808Z,30.02
2017-02-23T10:17:27.711Z,30.02
2017-02-23T10:18:27.433Z,30.31
2017-02-23T10:19:27.732Z,30.31
2017-02-23T10:20:27.748Z,30.11
2017-02-23T10:21:27.347Z,30.31
2017-02-23T10:22:27.805Z,30.21
2017-02-23T10:23:27.806Z,30.31
2017-02-23T10:24:27.814Z,30.02
2017-02-23T10:25:27.773Z,29.92
2017-02-23T10:26:27.779Z,29.73
2017-02-23T10:27:27.887Z,30.31
2017-02-23T10:28:27.845Z,29.83
2017-02-23T10:29:27.805Z,30.41
2017-02-23T10:30:27.860Z,30.02
2017-02-23T10:31:27.868Z,30.21
2017-02-23T10:32:27.822Z,30.21
2017-02-23T10:33:27.893Z,29.83
2017-02-23T10:34:27.840Z,30.02
2017-02-23T10:35:28.143Z,30.02
2017-02-23T10:36:27.902Z,30.21
2017-02-23T10:37:27.962Z,30.02
2017-02-23T10:38:27.886Z,29.83
2017-02-23T10:39:27.879Z,30.02
2017-02-23T10:40:27.934Z,30.11
2017-02-23T10:41:27.543Z,29.63
2017-02-23T10:42:27.501Z,30.21
2017-02-23T10:43:28.921Z,29.92
2017-02-23T10:44:27.959Z,30.31
2017-02-23T10:45:27.975Z,29.73
2017-02-23T10:46:27.929Z,30.31
2017-02-23T10:47:27.540Z,30.31
2017-02-23T10:48:27.939Z,30.51
2017-02-23T10:49:28.041Z,30.89
2017-02-23T10:50:27.961Z,30.79
2017-02-23T10:51:28.013Z,30.89
2017-02-23T10:52:27.975Z,30.89
2017-02-23T10:53:27.984Z,30.79
2017-02-23T10:54:28.033Z,30.89
2017-02-23T10:55:28.044Z,30.79
2017-02-23T10:56:27.998Z,30.79
2017-02-23T10:57:28.056Z,30.79
2017-02-23T10:58:28.067Z,30.69
2017-02-23T10:59:28.022Z,30.69
2017-02-23T11:00:28.090Z,30.89
2017-02-23T11:01:28.085Z,30.99
2017-02-23T11:02:28.072Z,30.69
2017-02-23T11:03:28.109Z,30.79
2017-02-23T11:04:28.065Z,30.6
2017-02-23T11:05:28.066Z,30.89
2017-02-23T11:06:27.676Z,31.09
2017-02-23T11:07:28.132Z,30.79
2017-02-23T11:08:28.157Z,30.99
2017-02-23T11:09:28.147Z,30.99
2017-02-23T11:10:28.102Z,30.79
2017-02-23T11:11:28.179Z,30.89
2017-02-23T11:12:28.117Z,31.18
2017-02-23T11:13:28.204Z,31.28
2017-02-23T11:14:28.240Z,31.18
2017-02-23T11:15:28.201Z,31.09
2017-02-23T11:16:28.159Z,31.09
2017-02-23T11:17:28.155Z,31.18
2017-02-23T11:18:28.162Z,31.09
2017-02-23T11:19:28.184Z,31.18
2017-02-23T11:20:28.277Z,31.18
2017-02-23T11:21:28.232Z,31.18
2017-02-23T11:22:28.194Z,31.28
2017-02-23T11:23:28.250Z,31.37
2017-02-23T11:24:28.206Z,31.09
2017-02-23T11:25:28.276Z,31.28
2017-02-23T11:26:28.223Z,31.37
2017-02-23T11:27:28.327Z,31.47
2017-02-23T11:28:28.288Z,31.28
2017-02-23T11:29:28.293Z,31.18
2017-02-23T11:30:28.250Z,31.18
2017-02-23T11:31:28.308Z,31.37
2017-02-23T11:32:28.317Z,31.37
2017-02-23T11:33:28.322Z,31.37
2017-02-23T11:34:28.279Z,31.37
2017-02-23T11:35:28.288Z,31.37
2017-02-23T11:36:28.395Z,31.47
2017-02-23T11:37:27.913Z,31.37
2017-02-23T11:38:28.362Z,31.18
2017-02-23T11:39:28.317Z,31.37
2017-02-23T11:40:28.324Z,31.47
2017-02-23T11:41:28.381Z,31.67
2017-02-23T11:42:28.403Z,31.37
2017-02-23T11:43:28.347Z,31.37
2017-02-23T11:44:28.355Z,31.37
2017-02-23T11:45:28.066Z,31.28
2017-02-23T11:46:28.369Z,31.47
2017-02-23T11:47:28.485Z,31.37
2017-02-23T11:48:28.386Z,31.57
2017-02-23T11:49:28.392Z,31.37
2017-02-23T11:50:28.454Z,31.47
2017-02-23T11:51:28.458Z,31.47
2017-02-23T11:52:28.415Z,31.86
2017-02-23T11:53:28.026Z,31.57
2017-02-23T11:54:28.439Z,31.78
2017-02-23T11:55:28.439Z,31.47
2017-02-23T11:56:28.456Z,31.57
2017-02-23T11:57:28.503Z,31.68
2017-02-23T11:58:28.531Z,31.49
2017-02-23T11:59:28.468Z,31.57
2017-02-23T12:00:28.475Z,31.47
2017-02-23T12:01:28.537Z,31.49
2017-02-23T12:02:28.541Z,31.47
2017-02-23T12:03:28.547Z,31.47
2017-02-23T12:04:28.632Z,31.59
2017-02-23T12:05:28.514Z,31.29
2017-02-23T12:06:28.545Z,31.49
2017-02-23T12:07:28.593Z,31.67
2017-02-23T12:08:28.587Z,31.37
2017-02-23T12:09:28.844Z,31.39
2017-02-23T12:10:28.153Z,31.1
2017-02-23T12:11:28.608Z,31.39
2017-02-23T12:12:28.563Z,31.1
2017-02-23T12:13:28.574Z,31.2
2017-02-23T12:14:28.660Z,31.1
2017-02-23T12:15:28.636Z,31.2
2017-02-23T12:16:28.599Z,31.49
2017-02-23T12:17:28.601Z,31.49
2017-02-23T12:18:28.659Z,31.39
2017-02-23T12:19:28.617Z,31.47
2017-02-23T12:20:28.731Z,31.67
2017-02-23T12:21:28.692Z,31.47
2017-02-23T12:22:28.640Z,31.47
2017-02-23T12:23:28.708Z,31.28
2017-02-23T12:24:28.704Z,31.47
2017-02-23T12:25:28.715Z,31.37
2017-02-23T12:26:28.272Z,31.47
2017-02-23T12:27:28.385Z,31.57
2017-02-23T12:28:28.736Z,31.47
2017-02-23T12:29:28.371Z,31.67
2017-02-23T12:30:28.700Z,31.37
2017-02-23T12:31:28.705Z,31.57
2017-02-23T12:32:28.715Z,31.57
2017-02-23T12:33:28.790Z,31.37
2017-02-23T12:34:28.778Z,31.57
2017-02-23T12:35:28.739Z,31.47
2017-02-23T12:36:28.743Z,31.28
2017-02-23T12:37:28.361Z,31.37
2017-02-23T12:38:28.814Z,31.37
2017-02-23T12:39:28.868Z,31.37
2017-02-23T12:40:28.885Z,31.37
2017-02-23T12:41:28.884Z,31.37
2017-02-23T12:42:28.789Z,31.47
2017-02-23T12:43:28.850Z,31.37
2017-02-23T12:44:28.804Z,31.47
2017-02-23T12:45:28.813Z,31.47
2017-02-23T12:46:28.818Z,31.57
2017-02-23T12:47:28.874Z,31.37
2017-02-23T12:48:28.835Z,31.37
2017-02-23T12:49:28.841Z,31.47
2017-02-23T12:50:28.861Z,31.37
2017-02-23T12:51:28.957Z,31.37
2017-02-23T12:52:28.927Z,31.47
2017-02-23T12:53:28.881Z,31.47
2017-02-23T12:54:28.929Z,31.49
2017-02-23T12:55:28.881Z,31.2